Time;durP1;ratioP1;P1;durP2;ratioP2;P2;SDS_P1;SDS_P2;PMS_P1;PMS_P2;Temp;Humidity;BMP_temperature;BMP_pressure;BME280_temperature;BME280_humidity;BME280_pressure;Samples;Min_cycle;Max_cycle;Signal;HPM_P1;HPM_P2
2022/07/24 00:00:26;;;;;;;23.42;8.43;;;793.70;1280.00;;;;;;5095379;28;20114;-81
2022/07/24 00:02:51;;;;;;;18.38;7.88;;;793.70;1305.60;;;;;;5094952;28;20028;-77
2022/07/24 00:05:17;;;;;;;17.13;7.93;;;793.70;1305.60;;;;;;5113628;28;20024;-80
2022/07/24 00:07:43;;;;;;;17.25;8.80;;;793.60;1305.60;;;;;;5113566;28;20020;-76
2022/07/24 00:10:10;;;;;;;20.67;8.02;;;768.90;1280.00;;;;;;5094844;28;20480;-77
2022/07/24 00:12:37;;;;;;;22.02;7.65;;;768.90;1280.00;;;;;;5113080;28;20023;-80
2022/07/24 00:15:04;;;;;;;24.23;8.50;;;768.90;1280.00;;;;;;5095313;28;20024;-80
2022/07/24 00:17:30;;;;;;;18.67;8.10;;;768.90;1280.00;;;;;;5094876;28;20024;-79
2022/07/24 00:19:56;;;;;;;17.77;7.88;;;768.90;1280.00;;;;;;5113228;28;20036;-77
2022/07/24 00:22:23;;;;;;;17.60;8.68;;;768.90;1280.00;;;;;;5112832;28;20026;-78
2022/07/24 00:24:49;;;;;;;21.48;8.48;;;768.70;1280.00;;;;;;5112886;28;20019;-78
2022/07/24 00:27:15;;;;;;;23.65;7.70;;;768.80;1280.00;;;;;;5113037;28;20032;-78
2022/07/24 00:29:43;;;;;;;15.38;7.85;;;768.80;1280.00;;;;;;5094838;28;20040;-76
2022/07/24 00:32:09;;;;;;;26.30;8.18;;;768.60;1305.60;;;;;;5113356;28;20080;-79
2022/07/24 00:34:35;;;;;;;34.60;8.63;;;768.60;1305.60;;;;;;5113064;28;20485;-77
2022/07/24 00:37:01;;;;;;;18.58;7.70;;;768.50;1305.60;;;;;;5094616;28;20016;-77
2022/07/24 00:39:26;;;;;;;21.25;8.20;;;768.60;1305.60;;;;;;5112758;28;20031;-78
2022/07/24 00:41:52;;;;;;;17.48;7.28;;;768.40;1305.60;;;;;;5113464;28;20027;-76
2022/07/24 00:44:19;;;;;;;18.95;8.10;;;768.40;1305.60;;;;;;5094515;28;20043;-77
2022/07/24 00:46:46;;;;;;;19.30;8.07;;;768.40;1331.20;;;;;;5112940;28;20015;-77
2022/07/24 00:49:14;;;;;;;23.95;9.25;;;768.40;1331.20;;;;;;5113072;28;20016;-77
2022/07/24 00:51:41;;;;;;;20.23;8.80;;;768.40;1331.20;;;;;;5098327;28;20522;-81
2022/07/24 00:54:09;;;;;;;17.50;7.68;;;768.40;1331.20;;;;;;5096392;28;20019;-77
2022/07/24 00:56:35;;;;;;;24.20;8.80;;;768.30;1331.20;;;;;;5117256;28;20153;-79
2022/07/24 00:59:02;;;;;;;16.40;8.15;;;768.10;1331.20;;;;;;5132740;27;20040;-76
2022/07/24 01:01:28;;;;;;;19.50;8.07;;;768.10;1331.20;;;;;;5117264;28;20112;-77
2022/07/24 01:03:55;;;;;;;17.15;8.68;;;743.30;1356.80;;;;;;5098575;28;20472;-77
2022/07/24 01:06:22;;;;;;;18.08;8.45;;;743.30;1356.80;;;;;;5117184;28;20101;-76
2022/07/24 01:08:48;;;;;;;27.05;9.38;;;743.30;1356.80;;;;;;5114550;28;20012;-81
2022/07/24 01:11:15;;;;;;;25.90;8.80;;;743.30;1356.80;;;;;;5098590;28;20019;-77
2022/07/24 01:13:41;;;;;;;15.02;8.32;;;743.30;1382.40;;;;;;5116897;28;20054;-78
2022/07/24 01:16:10;;;;;;;17.67;8.90;;;743.30;1382.40;;;;;;5116783;28;20074;-80
2022/07/24 01:18:36;;;;;;;21.92;8.25;;;743.30;1356.80;;;;;;5117278;28;20027;-77
2022/07/24 01:21:03;;;;;;;23.80;8.60;;;743.20;1382.40;;;;;;5116754;28;20039;-82
2022/07/24 01:23:29;;;;;;;24.27;9.55;;;743.20;1382.40;;;;;;5096132;28;20069;-78
2022/07/24 01:25:55;;;;;;;26.08;9.50;;;743.20;1356.80;;;;;;5116637;28;20023;-78
2022/07/24 01:28:20;;;;;;;20.52;8.50;;;743.20;1382.40;;;;;;5116329;28;20079;-79
2022/07/24 01:30:46;;;;;;;18.42;8.82;;;743.10;1356.80;;;;;;5097375;28;20118;-80
2022/07/24 01:33:14;;;;;;;22.63;9.20;;;743.10;1382.40;;;;;;5097489;28;20404;-78
2022/07/24 01:35:43;;;;;;;20.40;7.82;;;743.10;1382.40;;;;;;5097679;28;20032;-78
2022/07/24 01:38:10;;;;;;;14.80;8.93;;;743.10;1382.40;;;;;;5113611;28;20473;-78
2022/07/24 01:40:36;;;;;;;22.13;9.65;;;743.20;1382.40;;;;;;5115957;28;20026;-75
2022/07/24 01:43:02;;;;;;;22.92;8.63;;;743.10;1382.40;;;;;;5116171;28;20019;-75
2022/07/24 01:45:28;;;;;;;20.98;9.07;;;743.10;1382.40;;;;;;5116139;28;20082;-78
2022/07/24 01:47:53;;;;;;;19.10;9.18;;;743.10;1408.00;;;;;;5116206;28;20023;-75
2022/07/24 01:50:19;;;;;;;23.70;9.52;;;743.10;1408.00;;;;;;5116022;28;20069;-75
2022/07/24 01:52:45;;;;;;;19.35;8.57;;;743.00;1408.00;;;;;;5115882;28;20016;-75
2022/07/24 01:55:11;;;;;;;15.27;9.07;;;743.00;1408.00;;;;;;5115926;28;20031;-75
2022/07/24 01:57:38;;;;;;;23.08;9.60;;;742.70;1408.00;;;;;;5115809;28;20114;-78
2022/07/24 02:00:08;;;;;;;24.33;9.77;;;742.80;1433.60;;;;;;5115960;28;20567;-74
2022/07/24 02:02:33;;;;;;;28.75;11.52;;;742.50;1459.20;;;;;;5115079;28;20015;-78
2022/07/24 02:04:59;;;;;;;17.98;9.63;;;742.50;1484.80;;;;;;5115728;28;20422;-75
2022/07/24 02:07:25;;;;;;;18.33;10.27;;;717.70;1484.80;;;;;;5115842;28;20036;-75
2022/07/24 02:09:50;;;;;;;20.02;10.50;;;742.40;1510.40;;;;;;5115864;28;20038;-77
2022/07/24 02:12:16;;;;;;;34.70;11.00;;;717.60;1510.40;;;;;;5115641;28;20618;-76
2022/07/24 02:14:42;;;;;;;20.20;11.70;;;717.70;1510.40;;;;;;5115860;28;20027;-75
2022/07/24 02:17:07;;;;;;;31.92;10.90;;;742.50;1510.40;;;;;;5115501;28;20030;-78
2022/07/24 02:19:33;;;;;;;25.40;11.70;;;742.40;1510.40;;;;;;5115434;28;20477;-75
2022/07/24 02:21:59;;;;;;;29.45;12.20;;;742.40;1510.40;;;;;;5115536;28;20098;-75
2022/07/24 02:24:25;;;;;;;23.75;10.88;;;742.40;1510.40;;;;;;5096829;28;20066;-75
2022/07/24 02:26:51;;;;;;;22.17;10.82;;;742.50;1510.40;;;;;;5115335;28;20084;-76
2022/07/24 02:29:17;;;;;;;21.08;10.45;;;742.50;1510.40;;;;;;5115231;28;20044;-77
2022/07/24 02:31:42;;;;;;;25.17;10.63;;;742.50;1536.00;;;;;;5115251;28;20043;-77
2022/07/24 02:34:08;;;;;;;19.40;10.82;;;742.60;1510.40;;;;;;5096631;28;20544;-78
2022/07/24 02:36:34;;;;;;;17.60;10.25;;;742.60;1510.40;;;;;;5115075;28;20049;-75
2022/07/24 02:38:59;;;;;;;18.30;10.02;;;742.60;1536.00;;;;;;5115130;28;20036;-75
2022/07/24 02:41:25;;;;;;;21.45;10.57;;;742.60;1536.00;;;;;;5115293;28;20032;-78
2022/07/24 02:43:51;;;;;;;12.40;10.23;;;742.60;1536.00;;;;;;5114912;28;20081;-74
2022/07/24 02:46:17;;;;;;;21.17;10.15;;;742.60;1536.00;;;;;;5115077;28;20015;-75
2022/07/24 02:48:42;;;;;;;18.42;9.63;;;742.60;1536.00;;;;;;5114956;28;20051;-75
2022/07/24 02:51:08;;;;;;;16.63;9.73;;;742.60;1536.00;;;;;;5114938;28;20023;-75
2022/07/24 02:53:34;;;;;;;19.33;10.98;;;742.60;1536.00;;;;;;5114914;28;20377;-74
2022/07/24 02:56:00;;;;;;;13.82;9.75;;;742.60;1536.00;;;;;;5114827;28;20022;-75
2022/07/24 02:58:25;;;;;;;13.82;9.50;;;742.60;1536.00;;;;;;5114413;28;20112;-75
2022/07/24 03:00:51;;;;;;;15.80;10.00;;;742.70;1536.00;;;;;;5111424;28;20441;-74
2022/07/24 03:03:17;;;;;;;12.93;10.13;;;742.60;1536.00;;;;;;5114860;28;20423;-76
2022/07/24 03:05:43;;;;;;;19.00;10.57;;;742.60;1561.60;;;;;;5114664;28;20426;-75
2022/07/24 03:08:08;;;;;;;16.35;9.25;;;742.60;1561.60;;;;;;5114156;28;20047;-75
2022/07/24 03:10:35;;;;;;;12.50;10.00;;;742.60;1561.60;;;;;;5114731;28;20046;-75
2022/07/24 03:13:00;;;;;;;19.75;10.27;;;742.60;1561.60;;;;;;5114435;28;20076;-75
2022/07/24 03:15:26;;;;;;;18.70;10.23;;;742.60;1561.60;;;;;;5114559;28;20027;-74
2022/07/24 03:17:54;;;;;;;15.13;9.43;;;742.60;1587.20;;;;;;5111647;28;20020;-74
2022/07/24 03:20:21;;;;;;;15.65;9.20;;;742.60;1587.20;;;;;;5114427;28;20047;-78
2022/07/24 03:22:47;;;;;;;13.77;9.60;;;742.60;1587.20;;;;;;5114253;28;20031;-75
2022/07/24 03:25:13;;;;;;;16.75;10.05;;;742.60;1587.20;;;;;;5111560;28;20024;-77
2022/07/24 03:27:39;;;;;;;14.23;9.77;;;742.60;1587.20;;;;;;5113947;28;20023;-76
2022/07/24 03:30:06;;;;;;;15.15;9.25;;;742.60;1587.20;;;;;;5114192;28;20401;-76
2022/07/24 03:32:32;;;;;;;14.80;9.27;;;742.70;1587.20;;;;;;5114132;28;20016;-78
2022/07/24 03:34:58;;;;;;;15.57;9.10;;;742.70;1587.20;;;;;;5114201;28;20060;-75
2022/07/24 03:37:24;;;;;;;19.48;9.95;;;742.80;1587.20;;;;;;5113919;28;20374;-75
2022/07/24 03:39:50;;;;;;;14.35;8.85;;;742.80;1587.20;;;;;;5113898;28;20111;-74
2022/07/24 03:42:16;;;;;;;12.85;8.55;;;742.80;1587.20;;;;;;5113854;28;20569;-75
2022/07/24 03:44:41;;;;;;;17.00;8.35;;;742.80;1587.20;;;;;;5114134;28;20095;-76
2022/07/24 03:47:07;;;;;;;16.25;10.13;;;742.70;1612.80;;;;;;5113883;28;20091;-78
2022/07/24 03:49:33;;;;;;;16.85;9.82;;;742.60;1612.80;;;;;;5113818;28;20100;-75
2022/07/24 03:51:59;;;;;;;14.73;8.73;;;742.60;1638.40;;;;;;5113889;28;20043;-78
2022/07/24 03:54:25;;;;;;;17.08;9.98;;;742.60;1612.80;;;;;;5113816;28;20024;-75
2022/07/24 03:56:51;;;;;;;19.85;9.48;;;742.60;1638.40;;;;;;5113591;28;20027;-76
2022/07/24 03:59:18;;;;;;;22.13;9.52;;;742.60;1612.80;;;;;;5095228;28;20032;-77
2022/07/24 04:01:44;;;;;;;16.52;9.13;;;742.60;1638.40;;;;;;5113621;28;20015;-75
2022/07/24 04:04:09;;;;;;;13.90;10.05;;;742.60;1638.40;;;;;;5113563;28;20032;-75
2022/07/24 04:06:35;;;;;;;14.73;9.32;;;742.60;1664.00;;;;;;5113559;28;20019;-77
2022/07/24 04:09:03;;;;;;;16.80;9.38;;;742.60;1664.00;;;;;;5113437;28;20024;-74
2022/07/24 04:11:29;;;;;;;20.23;10.07;;;742.60;1664.00;;;;;;5113627;28;20015;-75
2022/07/24 04:13:54;;;;;;;15.32;9.85;;;717.70;1664.00;;;;;;5113296;28;20476;-75
2022/07/24 04:16:20;;;;;;;14.90;10.02;;;717.60;1689.60;;;;;;5112670;28;20023;-74
2022/07/24 04:18:46;;;;;;;13.80;9.60;;;717.70;1689.60;;;;;;5113350;28;20023;-78
2022/07/24 04:21:12;;;;;;;20.27;9.38;;;717.70;1689.60;;;;;;5094581;28;20024;-75
2022/07/24 04:23:38;;;;;;;19.15;10.60;;;717.70;1689.60;;;;;;5113262;28;20107;-75
2022/07/24 04:26:04;;;;;;;12.65;8.52;;;717.70;1715.20;;;;;;5113058;28;20040;-75
2022/07/24 04:28:30;;;;;;;14.07;8.80;;;742.40;1715.20;;;;;;5128467;27;20500;-78
2022/07/24 04:30:56;;;;;;;14.00;8.98;;;742.40;1740.80;;;;;;5124174;28;20020;-74
2022/07/24 04:33:22;;;;;;;15.18;9.40;;;742.50;1715.20;;;;;;5133979;28;20031;-75
2022/07/24 04:35:48;;;;;;;15.45;9.20;;;742.60;1715.20;;;;;;5134117;28;20068;-74
2022/07/24 04:38:13;;;;;;;24.48;9.90;;;742.60;1740.80;;;;;;5133736;28;20038;-75
2022/07/24 04:40:40;;;;;;;15.10;9.10;;;742.60;1715.20;;;;;;5115692;28;20102;-78
2022/07/24 04:43:06;;;;;;;17.33;10.43;;;742.60;1740.80;;;;;;5133946;28;20381;-78
2022/07/24 04:45:31;;;;;;;24.23;11.32;;;742.60;1740.80;;;;;;5134042;28;20015;-77
2022/07/24 04:47:57;;;;;;;17.30;11.90;;;742.70;1740.80;;;;;;5132739;28;20064;-78
2022/07/24 04:50:23;;;;;;;26.92;14.93;;;742.60;1766.40;;;;;;5133938;28;20484;-76
2022/07/24 04:52:49;;;;;;;23.27;13.45;;;742.60;1766.40;;;;;;5133826;28;20018;-75
2022/07/24 04:55:15;;;;;;;17.27;12.02;;;742.70;1766.40;;;;;;5127775;28;20095;-76
2022/07/24 04:57:40;;;;;;;22.35;10.63;;;742.70;1740.80;;;;;;5112873;28;20023;-77
2022/07/24 05:00:09;;;;;;;19.17;11.65;;;742.80;1740.80;;;;;;5113142;28;20535;-75
2022/07/24 05:02:35;;;;;;;26.63;10.85;;;742.90;1715.20;;;;;;5124474;28;20026;-76
2022/07/24 05:05:01;;;;;;;19.20;9.77;;;742.60;1715.20;;;;;;5118704;28;20032;-76
2022/07/24 05:07:27;;;;;;;14.18;9.95;;;742.80;1715.20;;;;;;5133750;28;20015;-78
2022/07/24 05:09:52;;;;;;;22.42;10.02;;;742.90;1715.20;;;;;;5121327;28;20072;-75
2022/07/24 05:12:18;;;;;;;17.83;10.25;;;742.70;1740.80;;;;;;5131801;28;20023;-79
2022/07/24 05:14:44;;;;;;;17.02;9.75;;;742.90;1740.80;;;;;;5123196;28;20026;-76
2022/07/24 05:17:10;;;;;;;19.50;10.60;;;742.90;1715.20;;;;;;5122548;28;20582;-78
2022/07/24 05:19:36;;;;;;;23.23;9.98;;;742.90;1715.20;;;;;;5132335;28;20035;-74
2022/07/24 05:22:02;;;;;;;12.57;9.00;;;742.90;1715.20;;;;;;5132768;28;20166;-77
2022/07/24 05:24:28;;;;;;;12.32;9.13;;;743.00;1715.20;;;;;;5131997;28;20094;-82
2022/07/24 05:26:53;;;;;;;17.52;8.70;;;742.80;1740.80;;;;;;5130537;28;20029;-75
2022/07/24 05:29:19;;;;;;;17.35;10.63;;;742.90;1740.80;;;;;;5122094;28;20043;-78
2022/07/24 05:31:46;;;;;;;19.40;9.25;;;742.60;1792.00;;;;;;5130593;28;20027;-79
2022/07/24 05:34:12;;;;;;;23.30;10.45;;;742.90;1766.40;;;;;;5133711;28;20019;-75
2022/07/24 05:36:37;;;;;;;21.65;12.40;;;742.90;1766.40;;;;;;5117635;28;20026;-75
2022/07/24 05:39:04;;;;;;;16.65;9.43;;;742.90;1792.00;;;;;;5122899;27;20038;-79
2022/07/24 05:41:30;;;;;;;24.02;10.88;;;742.70;1792.00;;;;;;5124542;27;20069;-78
2022/07/24 05:43:55;;;;;;;22.45;9.15;;;742.60;1817.60;;;;;;5131137;27;20016;-77
2022/07/24 05:46:21;;;;;;;20.08;9.63;;;742.70;1792.00;;;;;;5127202;27;20027;-75
2022/07/24 05:48:47;;;;;;;15.05;9.02;;;742.70;1817.60;;;;;;5136968;27;20019;-79
2022/07/24 05:51:12;;;;;;;14.48;9.02;;;742.80;1792.00;;;;;;5129571;27;20028;-75
2022/07/24 05:53:38;;;;;;;21.90;9.02;;;742.90;1792.00;;;;;;5116091;28;20024;-75
2022/07/24 05:56:07;;;;;;;22.23;11.13;;;743.00;1792.00;;;;;;5116024;28;20055;-75
2022/07/24 05:58:33;;;;;;;19.55;10.93;;;742.90;1792.00;;;;;;5115680;28;20036;-78
2022/07/24 06:00:59;;;;;;;20.00;10.43;;;743.00;1792.00;;;;;;5115929;28;20035;-78
2022/07/24 06:03:25;;;;;;;21.17;10.02;;;743.00;1792.00;;;;;;5097526;28;20055;-74
2022/07/24 06:05:50;;;;;;;18.30;9.73;;;743.00;1792.00;;;;;;5108500;28;20024;-75
2022/07/24 06:08:16;;;;;;;13.57;9.05;;;743.00;1792.00;;;;;;5107095;27;20120;-76
2022/07/24 06:10:42;;;;;;;26.10;9.38;;;742.90;1817.60;;;;;;5103520;28;20020;-79
2022/07/24 06:13:07;;;;;;;14.88;8.95;;;742.90;1817.60;;;;;;5103367;28;20819;-77
2022/07/24 06:15:33;;;;;;;18.27;9.63;;;743.10;1792.00;;;;;;5104126;28;20028;-76
2022/07/24 06:17:59;;;;;;;20.52;11.20;;;743.20;1792.00;;;;;;5115125;28;20024;-78
2022/07/24 06:20:25;;;;;;;15.82;10.15;;;743.20;1792.00;;;;;;5115135;28;20370;-76
2022/07/24 06:22:51;;;;;;;21.73;9.55;;;768.00;1766.40;;;;;;5097564;28;20027;-79
2022/07/24 06:25:17;;;;;;;14.27;8.70;;;768.00;1740.80;;;;;;5109743;28;20019;-77
2022/07/24 06:27:45;;;;;;;16.50;8.25;;;768.10;1740.80;;;;;;5096034;28;20499;-83
2022/07/24 06:30:16;;;;;;;18.95;9.23;;;768.30;1715.20;;;;;;5097051;28;20111;-80
2022/07/24 06:32:43;;;;;;;16.85;8.23;;;768.40;1689.60;;;;;;5084988;28;20472;-81
2022/07/24 06:35:09;;;;;;;16.30;7.80;;;768.60;1689.60;;;;;;5085146;28;20030;-81
2022/07/24 06:37:34;;;;;;;18.63;7.88;;;768.60;1664.00;;;;;;5084693;28;20016;-79
2022/07/24 06:40:00;;;;;;;16.15;7.97;;;768.70;1664.00;;;;;;5082110;28;20054;-78
2022/07/24 06:42:26;;;;;;;10.52;7.25;;;768.80;1638.40;;;;;;5125662;27;20429;-79
2022/07/24 06:44:52;;;;;;;15.60;8.10;;;768.90;1638.40;;;;;;5096496;28;20031;-78
2022/07/24 06:47:17;;;;;;;14.93;8.43;;;768.90;1638.40;;;;;;5115200;28;20016;-77
2022/07/24 06:49:43;;;;;;;15.70;8.30;;;768.90;1638.40;;;;;;5114703;28;20027;-79
2022/07/24 06:52:09;;;;;;;11.85;7.25;;;793.70;1664.00;;;;;;5114899;28;20016;-80
2022/07/24 06:54:35;;;;;;;9.40;7.13;;;793.90;1638.40;;;;;;5098204;28;20020;-79
2022/07/24 06:57:01;;;;;;;13.65;7.60;;;794.00;1612.80;;;;;;5096034;28;20043;-81
2022/07/24 06:59:27;;;;;;;12.35;7.32;;;794.00;1612.80;;;;;;5101160;27;20027;-77
2022/07/24 07:01:52;;;;;;;10.73;7.03;;;794.00;1587.20;;;;;;5115518;27;20387;-80
2022/07/24 07:04:18;;;;;;;10.57;7.50;;;794.20;1587.20;;;;;;5103142;27;20557;-81
2022/07/24 07:06:44;;;;;;;8.25;6.78;;;794.30;1587.20;;;;;;5117192;27;20027;-79
2022/07/24 07:09:10;;;;;;;10.30;7.38;;;794.50;1536.00;;;;;;5135581;27;20488;-78
2022/07/24 07:11:36;;;;;;;11.00;6.82;;;794.50;1536.00;;;;;;5126321;27;20032;-77
2022/07/24 07:14:02;;;;;;;11.43;7.20;;;819.20;1561.60;;;;;;5094435;27;20043;-77
2022/07/24 07:16:28;;;;;;;10.32;6.65;;;794.50;1536.00;;;;;;5135177;27;20022;-80
2022/07/24 07:18:54;;;;;;;9.82;6.57;;;819.20;1510.40;;;;;;5116908;27;20118;-77
2022/07/24 07:21:20;;;;;;;10.82;7.60;;;819.20;1536.00;;;;;;5116789;27;20027;-79
2022/07/24 07:23:46;;;;;;;10.32;6.93;;;794.50;1561.60;;;;;;5116168;27;20031;-79
2022/07/24 07:26:12;;;;;;;17.85;7.30;;;794.30;1587.20;;;;;;5116384;27;20042;-79
2022/07/24 07:28:37;;;;;;;15.45;7.90;;;794.30;1561.60;;;;;;5129559;27;20404;-76
2022/07/24 07:31:03;;;;;;;10.48;7.25;;;794.00;1587.20;;;;;;5126018;27;20098;-79
2022/07/24 07:33:29;;;;;;;9.50;7.15;;;794.50;1561.60;;;;;;5134981;27;20023;-79
2022/07/24 07:35:55;;;;;;;13.18;7.32;;;819.50;1536.00;;;;;;5125651;27;20012;-77
2022/07/24 07:38:21;;;;;;;13.55;6.80;;;819.60;1536.00;;;;;;5129820;27;20035;-75
2022/07/24 07:40:46;;;;;;;11.55;7.53;;;819.60;1536.00;;;;;;5135397;27;20038;-79
2022/07/24 07:43:12;;;;;;;15.63;8.07;;;819.90;1536.00;;;;;;5119993;27;20085;-78
2022/07/24 07:45:38;;;;;;;14.73;8.10;;;819.70;1587.20;;;;;;5114096;28;20555;-79
2022/07/24 07:48:04;;;;;;;11.27;8.23;;;819.80;1587.20;;;;;;5128980;27;20345;-80
2022/07/24 07:50:30;;;;;;;10.93;8.43;;;845.00;1587.20;;;;;;5134693;27;20025;-76
2022/07/24 07:52:56;;;;;;;16.75;8.75;;;819.70;1638.40;;;;;;5134756;27;20380;-79
2022/07/24 07:55:21;;;;;;;13.88;8.57;;;819.60;1664.00;;;;;;5119992;27;20015;-77
2022/07/24 07:57:48;;;;;;;16.90;9.57;;;819.60;1638.40;;;;;;5123009;27;20503;-75
2022/07/24 08:00:14;;;;;;;15.90;10.32;;;819.60;1638.40;;;;;;5130106;27;20472;-79
2022/07/24 08:02:40;;;;;;;21.65;9.13;;;819.60;1664.00;;;;;;5129898;27;20020;-74
2022/07/24 08:05:06;;;;;;;10.48;8.60;;;819.60;1664.00;;;;;;5113541;28;20043;-75
2022/07/24 08:07:33;;;;;;;12.98;8.60;;;819.60;1638.40;;;;;;5113406;28;20018;-78
2022/07/24 08:09:59;;;;;;;20.10;9.93;;;819.60;1638.40;;;;;;5113709;28;20064;-77
2022/07/24 08:12:24;;;;;;;13.13;8.63;;;819.80;1664.00;;;;;;5131331;27;20019;-81
2022/07/24 08:14:50;;;;;;;11.35;8.63;;;819.80;1612.80;;;;;;5134297;27;20019;-77
2022/07/24 08:17:16;;;;;;;12.57;9.60;;;819.80;1612.80;;;;;;5118695;27;20032;-79
2022/07/24 08:19:41;;;;;;;16.52;9.65;;;819.80;1638.40;;;;;;5113613;28;20077;-77
2022/07/24 08:22:07;;;;;;;14.73;9.73;;;819.70;1638.40;;;;;;5113657;28;20024;-77
2022/07/24 08:24:33;;;;;;;13.60;9.05;;;819.80;1664.00;;;;;;5133298;27;20023;-77
2022/07/24 08:26:59;;;;;;;15.35;9.07;;;819.90;1638.40;;;;;;5133939;27;20034;-77
2022/07/24 08:29:26;;;;;;;21.02;9.57;;;819.80;1638.40;;;;;;5122553;27;20054;-75
2022/07/24 08:31:53;;;;;;;13.95;8.77;;;820.00;1612.80;;;;;;5125998;27;20472;-77
2022/07/24 08:34:18;;;;;;;13.40;9.10;;;819.90;1612.80;;;;;;5133891;28;20022;-77
2022/07/24 08:36:45;;;;;;;24.75;9.38;;;820.00;1561.60;;;;;;5134049;28;20019;-75
2022/07/24 08:39:15;;;;;;;13.18;8.82;;;820.10;1536.00;;;;;;5133882;28;20530;-75
2022/07/24 08:41:42;;;;;;;16.33;8.93;;;844.90;1536.00;;;;;;5133930;28;20031;-76
2022/07/24 08:44:08;;;;;;;12.52;9.45;;;844.90;1536.00;;;;;;5133779;28;20019;-76
2022/07/24 08:46:38;;;;;;;13.18;9.05;;;844.90;1536.00;;;;;;5133944;28;20022;-77
2022/07/24 08:49:09;;;;;;;12.73;9.13;;;844.90;1510.40;;;;;;5127005;28;20049;-76
2022/07/24 08:51:37;;;;;;;16.38;9.90;;;845.00;1510.40;;;;;;5112645;28;20016;-77
2022/07/24 08:54:04;;;;;;;11.95;8.90;;;845.10;1536.00;;;;;;5112074;28;20031;-79
2022/07/24 08:56:30;;;;;;;10.70;9.25;;;845.10;1536.00;;;;;;5111779;28;20060;-75
2022/07/24 08:58:56;;;;;;;11.38;8.82;;;845.20;1536.00;;;;;;5111895;28;20461;-75
2022/07/24 09:01:22;;;;;;;9.77;8.55;;;845.20;1536.00;;;;;;5112022;28;20024;-76
2022/07/24 09:03:48;;;;;;;14.50;8.80;;;845.20;1536.00;;;;;;5112221;28;20023;-76
2022/07/24 09:06:15;;;;;;;16.13;9.68;;;845.40;1536.00;;;;;;5111924;28;20373;-77
2022/07/24 09:08:42;;;;;;;13.52;8.85;;;845.40;1536.00;;;;;;5111998;28;20016;-78
2022/07/24 09:11:09;;;;;;;11.85;9.43;;;845.40;1510.40;;;;;;5112581;28;20024;-75
2022/07/24 09:16:22;;;;;;;9.60;7.75;;;845.70;1459.20;;;;;;5114031;28;20495;-75
2022/07/24 09:18:50;;;;;;;11.18;8.13;;;845.70;1433.60;;;;;;5115802;28;20042;-75
2022/07/24 09:21:17;;;;;;;12.85;8.38;;;845.70;1433.60;;;;;;5113090;28;20475;-77
2022/07/24 09:23:44;;;;;;;11.18;8.82;;;870.60;1408.00;;;;;;5116422;28;20065;-75
2022/07/24 09:26:10;;;;;;;13.48;8.27;;;870.60;1408.00;;;;;;5115727;28;20024;-75
2022/07/24 09:28:53;;;;;;;12.98;7.80;;;871.10;1408.00;;;;;;5115988;28;20054;-75
2022/07/24 09:31:22;;;;;;;13.20;8.68;;;870.90;1382.40;;;;;;5116391;28;20099;-75
2022/07/24 09:33:48;;;;;;;8.32;7.45;;;871.10;1382.40;;;;;;5116748;28;20096;-75
2022/07/24 09:36:17;;;;;;;15.82;7.78;;;871.10;1331.20;;;;;;5116581;28;20050;-76
2022/07/24 09:38:50;;;;;;;14.60;8.57;;;871.30;1305.60;;;;;;5116243;28;20077;-75
2022/07/24 09:41:21;;;;;;;9.75;8.63;;;896.00;1280.00;;;;;;5113380;28;20016;-75
2022/07/24 09:43:57;;;;;;;9.40;7.85;;;871.30;1305.60;;;;;;5128253;27;20023;-78
2022/07/24 09:46:25;;;;;;;9.75;7.30;;;896.00;1305.60;;;;;;5117862;27;20035;-76
2022/07/24 09:48:57;;;;;;;10.55;7.57;;;896.10;1254.40;;;;;;5109316;27;20035;-76
2022/07/24 09:51:25;;;;;;;7.57;6.78;;;896.10;1254.40;;;;;;5133413;27;20098;-82
2022/07/24 09:53:57;;;;;;;12.68;7.75;;;896.20;1254.40;;;;;;5126907;27;20072;-79
2022/07/24 09:56:23;;;;;;;9.98;6.97;;;896.50;1228.80;;;;;;5122161;27;20027;-76
2022/07/24 09:58:55;;;;;;;10.25;6.88;;;896.30;1203.20;;;;;;5132555;27;20072;-76
2022/07/24 10:01:23;;;;;;;9.75;6.82;;;896.60;1228.80;;;;;;5100933;28;20380;-75
2022/07/24 10:03:51;;;;;;;9.30;6.03;;;896.70;1228.80;;;;;;5112699;27;20120;-78
2022/07/24 10:06:21;;;;;;;10.75;7.78;;;896.90;1228.80;;;;;;5112383;27;20062;-76
2022/07/24 10:08:49;;;;;;;10.48;6.22;;;921.80;1203.20;;;;;;5085864;28;20107;-79
2022/07/24 10:11:16;;;;;;;7.75;6.15;;;896.80;1177.60;;;;;;5134660;27;20377;-78
2022/07/24 10:13:42;;;;;;;10.85;6.68;;;896.60;1177.60;;;;;;5118080;27;20023;-78
2022/07/24 10:16:11;;;;;;;7.43;5.93;;;896.90;1203.20;;;;;;5102784;27;20084;-79
2022/07/24 10:18:59;;;;;;;10.00;6.55;;;921.70;1203.20;;;;;;5088525;28;20036;-79
2022/07/24 10:21:28;;;;;;;9.18;5.47;;;922.50;1152.00;;;;;;5091090;28;20016;-80
2022/07/24 10:24:09;;;;;;;7.40;5.85;;;947.80;1126.40;;;;;;5096076;28;20473;-85
2022/07/24 10:26:34;;;;;;;11.50;6.47;;;948.10;1100.80;;;;;;5094569;27;20023;-78
2022/07/24 10:29:21;;;;;;;11.35;6.70;;;973.30;1100.80;;;;;;5097346;28;20378;-84
2022/07/24 10:31:51;;;;;;;9.82;6.72;;;973.60;1075.20;;;;;;5090307;28;20020;-79
2022/07/24 10:34:50;;;;;;;7.35;5.68;;;998.50;1100.80;;;;;;5094807;28;20067;-80
2022/07/24 10:37:27;;;;;;;23.80;8.27;;;998.80;1075.20;;;;;;5092365;28;20020;-79
2022/07/24 10:40:03;;;;;;;11.10;6.40;;;998.50;1049.60;;;;;;5095417;28;20032;-81
2022/07/24 10:42:29;;;;;;;7.07;5.53;;;973.60;1049.60;;;;;;5099305;28;20016;-81
2022/07/24 10:45:15;;;;;;;8.75;5.38;;;973.20;1075.20;;;;;;5099808;28;20028;-79
2022/07/24 10:47:41;;;;;;;6.57;5.55;;;973.20;1075.20;;;;;;5093173;28;20020;-76
2022/07/24 10:50:07;;;;;;;11.13;5.72;;;973.20;1049.60;;;;;;5093344;28;20028;-80
2022/07/24 10:52:33;;;;;;;7.75;6.47;;;973.20;1075.20;;;;;;5093071;28;20040;-80
2022/07/24 10:55:30;;;;;;;6.82;5.85;;;948.10;1049.60;;;;;;5093029;28;20059;-79
2022/07/24 10:58:00;;;;;;;10.80;5.70;;;972.80;1100.80;;;;;;5092125;28;20042;-80
2022/07/24 11:00:36;;;;;;;7.43;5.63;;;973.20;1049.60;;;;;;5092966;28;20032;-78
2022/07/24 11:03:23;;;;;;;8.82;6.13;;;973.00;1049.60;;;;;;5099038;28;20114;-80
2022/07/24 11:06:05;;;;;;;7.32;5.30;;;948.10;1049.60;;;;;;5108593;28;20058;-78
2022/07/24 11:08:37;;;;;;;8.63;6.00;;;973.20;1049.60;;;;;;5099931;28;20043;-78
2022/07/24 11:11:18;;;;;;;7.85;6.22;;;948.10;1049.60;;;;;;5092706;28;20489;-78
2022/07/24 11:13:49;;;;;;;8.70;5.43;;;973.00;1049.60;;;;;;5091165;28;20119;-80
2022/07/24 11:16:21;;;;;;;6.10;4.78;;;973.20;1024.00;;;;;;5092657;28;20031;-80
2022/07/24 11:18:50;;;;;;;6.43;4.80;;;973.00;998.40;;;;;;5093783;28;20040;-79
2022/07/24 11:21:30;;;;;;;6.85;5.20;;;972.80;998.40;;;;;;5089951;28;20110;-80
2022/07/24 11:24:21;;;;;;;9.32;5.28;;;973.20;1024.00;;;;;;5090003;28;20023;-80
2022/07/24 11:26:50;;;;;;;6.38;5.28;;;948.10;1024.00;;;;;;5090444;28;20032;-79
2022/07/24 11:29:17;;;;;;;9.68;4.85;;;948.10;1024.00;;;;;;5108074;28;20048;-79
2022/07/24 11:31:45;;;;;;;6.20;4.70;;;947.90;1024.00;;;;;;5093411;28;20456;-79
2022/07/24 11:34:11;;;;;;;10.15;5.95;;;948.00;1024.00;;;;;;5121250;27;20084;-79
2022/07/24 11:36:42;;;;;;;9.23;6.68;;;947.60;1075.20;;;;;;5134492;27;20019;-79
2022/07/24 11:39:08;;;;;;;10.23;7.03;;;922.30;1100.80;;;;;;5121572;27;20038;-79
2022/07/24 11:41:51;;;;;;;8.55;6.53;;;921.90;1126.40;;;;;;5116353;27;20019;-78
2022/07/24 11:44:35;;;;;;;11.32;6.82;;;896.90;1126.40;;;;;;5101724;27;20544;-78
2022/07/24 11:47:17;;;;;;;9.13;7.10;;;896.60;1152.00;;;;;;5101450;28;20496;-80
2022/07/24 11:49:49;;;;;;;12.23;6.72;;;896.30;1152.00;;;;;;5100955;28;20034;-80
2022/07/24 11:52:27;;;;;;;8.30;6.82;;;896.20;1152.00;;;;;;5095227;28;20036;-78
2022/07/24 11:54:58;;;;;;;14.07;6.63;;;896.00;1177.60;;;;;;5095593;28;20022;-79
2022/07/24 11:57:29;;;;;;;8.93;6.53;;;871.30;1177.60;;;;;;5095384;28;20027;-79
2022/07/24 11:59:55;;;;;;;9.40;6.97;;;871.30;1203.20;;;;;;5113591;28;20063;-79
2022/07/24 12:02:23;;;;;;;8.63;6.82;;;871.30;1177.60;;;;;;5113807;28;20586;-80
2022/07/24 12:04:50;;;;;;;9.68;6.80;;;871.30;1228.80;;;;;;5112827;28;20019;-79
2022/07/24 12:07:29;;;;;;;9.65;6.70;;;896.10;1177.60;;;;;;5106488;28;20027;-80
2022/07/24 12:10:03;;;;;;;8.95;6.95;;;896.20;1177.60;;;;;;5079904;28;20072;-80
2022/07/24 12:12:34;;;;;;;11.82;6.85;;;896.30;1177.60;;;;;;5094915;28;20035;-77